sensor_id;sensor_type;location;lat;lon;timestamp;P1;durP1;ratioP1;P2;durP2;ratioP2
14722;SDS011;7452;55.594;12.986;2022-11-18T00:00:53;1.40;;;1.30;;
14722;SDS011;7452;55.594;12.986;2022-11-18T00:03:20;1.67;;;1.37;;
14722;SDS011;7452;55.594;12.986;2022-11-18T00:05:51;1.73;;;1.20;;
14722;SDS011;7452;55.594;12.986;2022-11-18T00:08:19;2.50;;;1.23;;
14722;SDS011;7452;55.594;12.986;2022-11-18T00:10:46;1.77;;;1.10;;
14722;SDS011;7452;55.594;12.986;2022-11-18T00:13:15;1.30;;;1.00;;
14722;SDS011;7452;55.594;12.986;2022-11-18T00:16:00;1.27;;;1.10;;
14722;SDS011;7452;55.594;12.986;2022-11-18T00:18:27;1.73;;;1.13;;
14722;SDS011;7452;55.594;12.986;2022-11-18T00:20:54;1.30;;;0.97;;
14722;SDS011;7452;55.594;12.986;2022-11-18T00:23:25;1.13;;;0.90;;
14722;SDS011;7452;55.594;12.986;2022-11-18T00:25:52;1.00;;;0.80;;
14722;SDS011;7452;55.594;12.986;2022-11-18T00:28:20;0.93;;;0.90;;
14722;SDS011;7452;55.594;12.986;2022-11-18T00:30:48;0.90;;;0.90;;
14722;SDS011;7452;55.594;12.986;2022-11-18T00:33:15;1.13;;;0.90;;
14722;SDS011;7452;55.594;12.986;2022-11-18T00:35:41;1.03;;;0.87;;
14722;SDS011;7452;55.594;12.986;2022-11-18T00:38:08;0.90;;;0.90;;
14722;SDS011;7452;55.594;12.986;2022-11-18T00:40:35;0.70;;;0.70;;
14722;SDS011;7452;55.594;12.986;2022-11-18T00:43:02;1.30;;;0.70;;
14722;SDS011;7452;55.594;12.986;2022-11-18T00:45:30;1.43;;;0.80;;
14722;SDS011;7452;55.594;12.986;2022-11-18T00:47:57;2.30;;;1.00;;
14722;SDS011;7452;55.594;12.986;2022-11-18T00:50:24;1.30;;;0.97;;
14722;SDS011;7452;55.594;12.986;2022-11-18T00:52:52;2.20;;;0.90;;
14722;SDS011;7452;55.594;12.986;2022-11-18T00:55:19;1.00;;;0.90;;
14722;SDS011;7452;55.594;12.986;2022-11-18T00:57:46;1.63;;;0.93;;
14722;SDS011;7452;55.594;12.986;2022-11-18T01:00:13;1.70;;;0.87;;
14722;SDS011;7452;55.594;12.986;2022-11-18T01:02:41;1.07;;;0.97;;
14722;SDS011;7452;55.594;12.986;2022-11-18T01:05:09;1.60;;;0.80;;
14722;SDS011;7452;55.594;12.986;2022-11-18T01:07:35;0.97;;;0.80;;
14722;SDS011;7452;55.594;12.986;2022-11-18T01:10:03;1.53;;;0.70;;
14722;SDS011;7452;55.594;12.986;2022-11-18T01:12:30;0.73;;;0.70;;
14722;SDS011;7452;55.594;12.986;2022-11-18T01:15:15;0.93;;;0.83;;
14722;SDS011;7452;55.594;12.986;2022-11-18T01:17:44;1.70;;;0.77;;
14722;SDS011;7452;55.594;12.986;2022-11-18T01:20:11;1.13;;;0.80;;
14722;SDS011;7452;55.594;12.986;2022-11-18T01:22:38;1.43;;;0.97;;
14722;SDS011;7452;55.594;12.986;2022-11-18T01:25:05;2.60;;;1.10;;
14722;SDS011;7452;55.594;12.986;2022-11-18T01:27:33;0.83;;;0.73;;
14722;SDS011;7452;55.594;12.986;2022-11-18T01:30:00;1.53;;;1.10;;
14722;SDS011;7452;55.594;12.986;2022-11-18T01:32:27;0.77;;;0.70;;
14722;SDS011;7452;55.594;12.986;2022-11-18T01:34:56;0.90;;;0.90;;
14722;SDS011;7452;55.594;12.986;2022-11-18T01:37:23;1.27;;;0.80;;
14722;SDS011;7452;55.594;12.986;2022-11-18T01:39:51;1.57;;;0.80;;
14722;SDS011;7452;55.594;12.986;2022-11-18T01:42:18;0.73;;;0.73;;
14722;SDS011;7452;55.594;12.986;2022-11-18T01:45:05;2.40;;;1.00;;
14722;SDS011;7452;55.594;12.986;2022-11-18T01:47:51;1.83;;;0.80;;
14722;SDS011;7452;55.594;12.986;2022-11-18T01:50:24;1.27;;;0.80;;
14722;SDS011;7452;55.594;12.986;2022-11-18T01:52:53;1.20;;;1.10;;
14722;SDS011;7452;55.594;12.986;2022-11-18T01:55:26;2.57;;;0.80;;
14722;SDS011;7452;55.594;12.986;2022-11-18T01:57:58;1.50;;;0.90;;
14722;SDS011;7452;55.594;12.986;2022-11-18T02:00:31;1.43;;;0.80;;
14722;SDS011;7452;55.594;12.986;2022-11-18T02:02:59;1.97;;;0.87;;
14722;SDS011;7452;55.594;12.986;2022-11-18T02:05:28;0.60;;;0.60;;
14722;SDS011;7452;55.594;12.986;2022-11-18T02:07:58;1.80;;;0.90;;
14722;SDS011;7452;55.594;12.986;2022-11-18T02:10:26;0.90;;;0.90;;
14722;SDS011;7452;55.594;12.986;2022-11-18T02:12:53;1.60;;;0.83;;
14722;SDS011;7452;55.594;12.986;2022-11-18T02:15:23;2.17;;;1.10;;
14722;SDS011;7452;55.594;12.986;2022-11-18T02:17:58;1.83;;;1.10;;
14722;SDS011;7452;55.594;12.986;2022-11-18T02:20:34;0.97;;;0.77;;
14722;SDS011;7452;55.594;12.986;2022-11-18T02:29:13;1.70;;;0.80;;
14722;SDS011;7452;55.594;12.986;2022-11-18T02:31:44;2.30;;;0.90;;
14722;SDS011;7452;55.594;12.986;2022-11-18T02:34:19;1.67;;;0.90;;
14722;SDS011;7452;55.594;12.986;2022-11-18T02:36:54;0.70;;;0.70;;
14722;SDS011;7452;55.594;12.986;2022-11-18T02:39:27;0.73;;;0.70;;
14722;SDS011;7452;55.594;12.986;2022-11-18T02:41:59;0.80;;;0.80;;
14722;SDS011;7452;55.594;12.986;2022-11-18T02:44:31;1.23;;;0.80;;
14722;SDS011;7452;55.594;12.986;2022-11-18T02:47:00;0.80;;;0.80;;
14722;SDS011;7452;55.594;12.986;2022-11-18T02:49:32;2.33;;;0.80;;
14722;SDS011;7452;55.594;12.986;2022-11-18T02:52:03;1.30;;;0.97;;
14722;SDS011;7452;55.594;12.986;2022-11-18T02:54:32;1.00;;;0.90;;
14722;SDS011;7452;55.594;12.986;2022-11-18T02:57:02;0.97;;;0.80;;
14722;SDS011;7452;55.594;12.986;2022-11-18T02:59:31;0.90;;;0.70;;
14722;SDS011;7452;55.594;12.986;2022-11-18T03:01:58;1.10;;;0.90;;
14722;SDS011;7452;55.594;12.986;2022-11-18T03:04:27;0.90;;;0.70;;
14722;SDS011;7452;55.594;12.986;2022-11-18T03:06:55;1.33;;;0.90;;
14722;SDS011;7452;55.594;12.986;2022-11-18T03:09:30;0.80;;;0.80;;
14722;SDS011;7452;55.594;12.986;2022-11-18T03:12:02;0.80;;;0.70;;
14722;SDS011;7452;55.594;12.986;2022-11-18T03:14:39;1.60;;;0.90;;
14722;SDS011;7452;55.594;12.986;2022-11-18T03:17:15;1.30;;;0.93;;
14722;SDS011;7452;55.594;12.986;2022-11-18T03:19:55;1.53;;;0.93;;
14722;SDS011;7452;55.594;12.986;2022-11-18T03:22:29;1.13;;;0.90;;
14722;SDS011;7452;55.594;12.986;2022-11-18T03:25:03;1.30;;;0.90;;
14722;SDS011;7452;55.594;12.986;2022-11-18T03:27:34;1.07;;;0.80;;
14722;SDS011;7452;55.594;12.986;2022-11-18T03:30:06;2.70;;;0.77;;
14722;SDS011;7452;55.594;12.986;2022-11-18T03:32:36;2.27;;;1.00;;
14722;SDS011;7452;55.594;12.986;2022-11-18T03:35:06;2.37;;;0.97;;
14722;SDS011;7452;55.594;12.986;2022-11-18T03:37:36;1.93;;;0.90;;
14722;SDS011;7452;55.594;12.986;2022-11-18T03:40:07;1.20;;;0.90;;
14722;SDS011;7452;55.594;12.986;2022-11-18T03:42:39;1.23;;;0.80;;
14722;SDS011;7452;55.594;12.986;2022-11-18T03:45:11;1.10;;;0.80;;
14722;SDS011;7452;55.594;12.986;2022-11-18T03:47:41;1.77;;;0.70;;
14722;SDS011;7452;55.594;12.986;2022-11-18T03:50:12;1.83;;;0.70;;
14722;SDS011;7452;55.594;12.986;2022-11-18T03:52:45;0.83;;;0.80;;
14722;SDS011;7452;55.594;12.986;2022-11-18T03:55:16;1.57;;;0.73;;
14722;SDS011;7452;55.594;12.986;2022-11-18T03:57:47;1.53;;;0.70;;
14722;SDS011;7452;55.594;12.986;2022-11-18T04:00:21;1.37;;;0.67;;
14722;SDS011;7452;55.594;12.986;2022-11-18T04:02:48;1.57;;;0.70;;
14722;SDS011;7452;55.594;12.986;2022-11-18T04:05:16;0.93;;;0.60;;
14722;SDS011;7452;55.594;12.986;2022-11-18T04:07:49;0.73;;;0.43;;
14722;SDS011;7452;55.594;12.986;2022-11-18T04:10:21;1.40;;;0.70;;
14722;SDS011;7452;55.594;12.986;2022-11-18T04:12:53;1.43;;;0.63;;
14722;SDS011;7452;55.594;12.986;2022-11-18T04:15:27;0.93;;;0.60;;
14722;SDS011;7452;55.594;12.986;2022-11-18T04:17:56;0.50;;;0.50;;
14722;SDS011;7452;55.594;12.986;2022-11-18T04:20:24;0.90;;;0.60;;
14722;SDS011;7452;55.594;12.986;2022-11-18T04:22:52;4.10;;;0.40;;
14722;SDS011;7452;55.594;12.986;2022-11-18T04:25:19;0.50;;;0.50;;
14722;SDS011;7452;55.594;12.986;2022-11-18T04:27:48;0.53;;;0.53;;
14722;SDS011;7452;55.594;12.986;2022-11-18T04:30:15;1.13;;;0.80;;
14722;SDS011;7452;55.594;12.986;2022-11-18T04:32:45;0.70;;;0.50;;
14722;SDS011;7452;55.594;12.986;2022-11-18T04:35:12;2.00;;;0.60;;
14722;SDS011;7452;55.594;12.986;2022-11-18T04:37:40;1.40;;;0.70;;
14722;SDS011;7452;55.594;12.986;2022-11-18T04:40:07;0.63;;;0.43;;
14722;SDS011;7452;55.594;12.986;2022-11-18T04:42:35;0.93;;;0.50;;
14722;SDS011;7452;55.594;12.986;2022-11-18T04:45:02;0.57;;;0.57;;
14722;SDS011;7452;55.594;12.986;2022-11-18T04:47:30;2.03;;;0.60;;
14722;SDS011;7452;55.594;12.986;2022-11-18T04:49:59;3.50;;;0.57;;
14722;SDS011;7452;55.594;12.986;2022-11-18T04:52:26;1.47;;;0.50;;
14722;SDS011;7452;55.594;12.986;2022-11-18T04:54:53;1.07;;;0.80;;
14722;SDS011;7452;55.594;12.986;2022-11-18T04:57:20;1.00;;;0.60;;
14722;SDS011;7452;55.594;12.986;2022-11-18T04:59:47;0.70;;;0.70;;
14722;SDS011;7452;55.594;12.986;2022-11-18T05:02:14;0.60;;;0.60;;
14722;SDS011;7452;55.594;12.986;2022-11-18T05:04:41;0.50;;;0.50;;
14722;SDS011;7452;55.594;12.986;2022-11-18T05:07:13;0.63;;;0.63;;
14722;SDS011;7452;55.594;12.986;2022-11-18T05:09:40;1.00;;;0.60;;
14722;SDS011;7452;55.594;12.986;2022-11-18T05:12:09;1.43;;;0.70;;
14722;SDS011;7452;55.594;12.986;2022-11-18T05:14:55;0.53;;;0.53;;
14722;SDS011;7452;55.594;12.986;2022-11-18T05:17:22;1.40;;;0.77;;
14722;SDS011;7452;55.594;12.986;2022-11-18T05:19:50;0.90;;;0.60;;
14722;SDS011;7452;55.594;12.986;2022-11-18T05:22:18;1.97;;;0.63;;
14722;SDS011;7452;55.594;12.986;2022-11-18T05:24:45;0.90;;;0.70;;
14722;SDS011;7452;55.594;12.986;2022-11-18T05:27:12;0.70;;;0.60;;
14722;SDS011;7452;55.594;12.986;2022-11-18T05:29:40;1.20;;;0.80;;
14722;SDS011;7452;55.594;12.986;2022-11-18T05:32:07;0.87;;;0.70;;
14722;SDS011;7452;55.594;12.986;2022-11-18T05:34:34;3.17;;;1.03;;
14722;SDS011;7452;55.594;12.986;2022-11-18T05:37:01;1.07;;;0.73;;
14722;SDS011;7452;55.594;12.986;2022-11-18T05:39:29;1.27;;;0.70;;
14722;SDS011;7452;55.594;12.986;2022-11-18T05:41:57;0.97;;;0.80;;
14722;SDS011;7452;55.594;12.986;2022-11-18T05:44:43;2.07;;;1.07;;
14722;SDS011;7452;55.594;12.986;2022-11-18T05:47:11;1.60;;;1.00;;
14722;SDS011;7452;55.594;12.986;2022-11-18T05:49:38;0.97;;;0.70;;
14722;SDS011;7452;55.594;12.986;2022-11-18T05:52:05;2.07;;;0.60;;
14722;SDS011;7452;55.594;12.986;2022-11-18T05:54:33;3.23;;;0.90;;
14722;SDS011;7452;55.594;12.986;2022-11-18T05:57:00;1.00;;;0.70;;
14722;SDS011;7452;55.594;12.986;2022-11-18T05:59:27;1.70;;;0.90;;
14722;SDS011;7452;55.594;12.986;2022-11-18T06:01:56;2.60;;;0.90;;
14722;SDS011;7452;55.594;12.986;2022-11-18T06:04:26;0.97;;;0.80;;
14722;SDS011;7452;55.594;12.986;2022-11-18T06:06:58;1.90;;;0.80;;
14722;SDS011;7452;55.594;12.986;2022-11-18T06:09:31;1.67;;;1.03;;
14722;SDS011;7452;55.594;12.986;2022-11-18T06:12:02;0.90;;;0.80;;
14722;SDS011;7452;55.594;12.986;2022-11-18T06:14:33;1.23;;;0.67;;
14722;SDS011;7452;55.594;12.986;2022-11-18T06:17:07;1.70;;;1.03;;
14722;SDS011;7452;55.594;12.986;2022-11-18T06:19:37;1.47;;;0.80;;
14722;SDS011;7452;55.594;12.986;2022-11-18T06:22:04;1.37;;;0.90;;
14722;SDS011;7452;55.594;12.986;2022-11-18T06:24:32;1.60;;;0.77;;
14722;SDS011;7452;55.594;12.986;2022-11-18T06:27:01;2.13;;;1.10;;
14722;SDS011;7452;55.594;12.986;2022-11-18T06:29:29;2.17;;;0.80;;
14722;SDS011;7452;55.594;12.986;2022-11-18T06:31:57;1.30;;;1.10;;
14722;SDS011;7452;55.594;12.986;2022-11-18T06:34:24;1.07;;;0.97;;
14722;SDS011;7452;55.594;12.986;2022-11-18T06:36:51;1.67;;;0.90;;
14722;SDS011;7452;55.594;12.986;2022-11-18T06:39:18;1.13;;;0.87;;
14722;SDS011;7452;55.594;12.986;2022-11-18T06:41:46;3.43;;;1.00;;
14722;SDS011;7452;55.594;12.986;2022-11-18T06:44:13;2.50;;;0.90;;
14722;SDS011;7452;55.594;12.986;2022-11-18T06:46:39;1.70;;;1.10;;
14722;SDS011;7452;55.594;12.986;2022-11-18T06:49:22;1.90;;;1.20;;
14722;SDS011;7452;55.594;12.986;2022-11-18T06:51:49;3.23;;;1.13;;
14722;SDS011;7452;55.594;12.986;2022-11-18T06:54:16;6.47;;;1.10;;
14722;SDS011;7452;55.594;12.986;2022-11-18T06:56:44;1.97;;;1.20;;
14722;SDS011;7452;55.594;12.986;2022-11-18T06:59:13;2.60;;;1.20;;
14722;SDS011;7452;55.594;12.986;2022-11-18T07:01:45;1.40;;;1.00;;
14722;SDS011;7452;55.594;12.986;2022-11-18T07:04:12;1.87;;;1.10;;
14722;SDS011;7452;55.594;12.986;2022-11-18T07:06:39;1.77;;;0.97;;
14722;SDS011;7452;55.594;12.986;2022-11-18T07:09:06;4.23;;;1.40;;
14722;SDS011;7452;55.594;12.986;2022-11-18T07:11:33;2.20;;;1.23;;
14722;SDS011;7452;55.594;12.986;2022-11-18T07:14:02;3.77;;;1.40;;
14722;SDS011;7452;55.594;12.986;2022-11-18T07:16:32;1.97;;;1.40;;
14722;SDS011;7452;55.594;12.986;2022-11-18T07:19:00;1.83;;;1.10;;
14722;SDS011;7452;55.594;12.986;2022-11-18T07:21:33;1.23;;;1.03;;
14722;SDS011;7452;55.594;12.986;2022-11-18T07:23:59;1.80;;;1.00;;
14722;SDS011;7452;55.594;12.986;2022-11-18T07:26:29;1.80;;;1.20;;
14722;SDS011;7452;55.594;12.986;2022-11-18T07:28:56;1.57;;;1.20;;
14722;SDS011;7452;55.594;12.986;2022-11-18T07:31:24;2.57;;;1.30;;
14722;SDS011;7452;55.594;12.986;2022-11-18T07:33:52;2.50;;;1.60;;
14722;SDS011;7452;55.594;12.986;2022-11-18T07:36:20;3.27;;;1.40;;
14722;SDS011;7452;55.594;12.986;2022-11-18T07:38:48;3.83;;;1.70;;
14722;SDS011;7452;55.594;12.986;2022-11-18T07:41:16;2.40;;;1.40;;
14722;SDS011;7452;55.594;12.986;2022-11-18T07:43:44;2.73;;;1.33;;
14722;SDS011;7452;55.594;12.986;2022-11-18T07:46:12;4.50;;;1.50;;
14722;SDS011;7452;55.594;12.986;2022-11-18T07:48:41;4.63;;;1.80;;
14722;SDS011;7452;55.594;12.986;2022-11-18T07:51:10;4.90;;;2.20;;
14722;SDS011;7452;55.594;12.986;2022-11-18T07:53:38;7.13;;;2.10;;
14722;SDS011;7452;55.594;12.986;2022-11-18T07:56:05;4.23;;;2.10;;
14722;SDS011;7452;55.594;12.986;2022-11-18T07:58:33;3.43;;;1.60;;
14722;SDS011;7452;55.594;12.986;2022-11-18T08:01:05;3.10;;;1.40;;
14722;SDS011;7452;55.594;12.986;2022-11-18T08:03:33;3.13;;;1.70;;
14722;SDS011;7452;55.594;12.986;2022-11-18T08:06:01;4.13;;;1.40;;
14722;SDS011;7452;55.594;12.986;2022-11-18T08:08:30;2.73;;;1.40;;
14722;SDS011;7452;55.594;12.986;2022-11-18T08:10:58;1.40;;;1.10;;
14722;SDS011;7452;55.594;12.986;2022-11-18T08:13:27;3.80;;;1.57;;
14722;SDS011;7452;55.594;12.986;2022-11-18T08:15:55;2.30;;;1.20;;
14722;SDS011;7452;55.594;12.986;2022-11-18T08:18:22;3.30;;;1.30;;
14722;SDS011;7452;55.594;12.986;2022-11-18T08:20:49;1.83;;;1.20;;
14722;SDS011;7452;55.594;12.986;2022-11-18T08:23:16;4.03;;;1.40;;
14722;SDS011;7452;55.594;12.986;2022-11-18T08:25:45;5.57;;;1.10;;
14722;SDS011;7452;55.594;12.986;2022-11-18T08:28:12;2.40;;;1.23;;
14722;SDS011;7452;55.594;12.986;2022-11-18T08:30:40;2.13;;;1.10;;
14722;SDS011;7452;55.594;12.986;2022-11-18T08:33:07;1.73;;;1.40;;
14722;SDS011;7452;55.594;12.986;2022-11-18T08:35:34;1.83;;;1.10;;
14722;SDS011;7452;55.594;12.986;2022-11-18T08:38:01;1.73;;;1.07;;
14722;SDS011;7452;55.594;12.986;2022-11-18T08:40:27;2.07;;;1.30;;
14722;SDS011;7452;55.594;12.986;2022-11-18T08:42:56;3.30;;;1.50;;
14722;SDS011;7452;55.594;12.986;2022-11-18T08:45:23;4.37;;;1.13;;
14722;SDS011;7452;55.594;12.986;2022-11-18T08:47:50;2.17;;;1.20;;
14722;SDS011;7452;55.594;12.986;2022-11-18T08:50:18;1.43;;;1.03;;
14722;SDS011;7452;55.594;12.986;2022-11-18T08:52:45;2.63;;;1.10;;
14722;SDS011;7452;55.594;12.986;2022-11-18T08:55:12;3.50;;;1.30;;
14722;SDS011;7452;55.594;12.986;2022-11-18T08:57:39;2.77;;;1.00;;
14722;SDS011;7452;55.594;12.986;2022-11-18T09:00:08;3.90;;;0.80;;
14722;SDS011;7452;55.594;12.986;2022-11-18T09:02:36;1.50;;;0.80;;
14722;SDS011;7452;55.594;12.986;2022-11-18T09:05:03;2.07;;;1.10;;
14722;SDS011;7452;55.594;12.986;2022-11-18T09:07:30;1.30;;;0.80;;
14722;SDS011;7452;55.594;12.986;2022-11-18T09:09:57;2.07;;;1.00;;
14722;SDS011;7452;55.594;12.986;2022-11-18T09:12:24;2.50;;;0.90;;
14722;SDS011;7452;55.594;12.986;2022-11-18T09:14:51;2.40;;;1.10;;
14722;SDS011;7452;55.594;12.986;2022-11-18T09:17:20;2.23;;;0.80;;
14722;SDS011;7452;55.594;12.986;2022-11-18T09:19:47;1.90;;;0.90;;
14722;SDS011;7452;55.594;12.986;2022-11-18T09:22:14;2.97;;;1.03;;
14722;SDS011;7452;55.594;12.986;2022-11-18T09:24:41;1.70;;;1.30;;
14722;SDS011;7452;55.594;12.986;2022-11-18T09:27:09;1.50;;;1.00;;
14722;SDS011;7452;55.594;12.986;2022-11-18T09:29:36;3.13;;;1.07;;
14722;SDS011;7452;55.594;12.986;2022-11-18T09:32:03;1.87;;;0.77;;
14722;SDS011;7452;55.594;12.986;2022-11-18T09:34:32;2.40;;;0.90;;
14722;SDS011;7452;55.594;12.986;2022-11-18T09:36:59;2.20;;;1.10;;
14722;SDS011;7452;55.594;12.986;2022-11-18T09:39:30;2.17;;;0.83;;
14722;SDS011;7452;55.594;12.986;2022-11-18T09:42:01;1.20;;;1.07;;
14722;SDS011;7452;55.594;12.986;2022-11-18T09:44:44;1.20;;;0.80;;
14722;SDS011;7452;55.594;12.986;2022-11-18T09:47:23;2.40;;;0.90;;
14722;SDS011;7452;55.594;12.986;2022-11-18T09:49:54;1.37;;;0.70;;
14722;SDS011;7452;55.594;12.986;2022-11-18T09:52:24;1.63;;;0.80;;
14722;SDS011;7452;55.594;12.986;2022-11-18T09:54:53;0.97;;;0.70;;
14722;SDS011;7452;55.594;12.986;2022-11-18T09:57:22;2.03;;;0.90;;
14722;SDS011;7452;55.594;12.986;2022-11-18T09:59:51;2.30;;;1.00;;
14722;SDS011;7452;55.594;12.986;2022-11-18T10:02:24;4.17;;;1.07;;
14722;SDS011;7452;55.594;12.986;2022-11-18T10:04:56;1.73;;;0.83;;
14722;SDS011;7452;55.594;12.986;2022-11-18T10:07:34;1.50;;;0.90;;
14722;SDS011;7452;55.594;12.986;2022-11-18T10:10:10;2.13;;;1.00;;
14722;SDS011;7452;55.594;12.986;2022-11-18T10:12:44;3.87;;;1.10;;
14722;SDS011;7452;55.594;12.986;2022-11-18T10:15:18;1.80;;;1.17;;
14722;SDS011;7452;55.594;12.986;2022-11-18T10:17:53;1.10;;;0.80;;
14722;SDS011;7452;55.594;12.986;2022-11-18T10:20:30;1.80;;;0.90;;
14722;SDS011;7452;55.594;12.986;2022-11-18T10:23:04;2.27;;;0.80;;
14722;SDS011;7452;55.594;12.986;2022-11-18T10:25:40;1.63;;;0.70;;
14722;SDS011;7452;55.594;12.986;2022-11-18T10:28:15;1.93;;;0.60;;
14722;SDS011;7452;55.594;12.986;2022-11-18T10:30:45;2.20;;;0.90;;
14722;SDS011;7452;55.594;12.986;2022-11-18T10:33:25;1.13;;;0.67;;
14722;SDS011;7452;55.594;12.986;2022-11-18T10:36:13;2.87;;;0.70;;
14722;SDS011;7452;55.594;12.986;2022-11-18T10:38:45;1.33;;;0.80;;
14722;SDS011;7452;55.594;12.986;2022-11-18T10:41:12;1.27;;;0.73;;
14722;SDS011;7452;55.594;12.986;2022-11-18T10:43:43;2.67;;;1.00;;
14722;SDS011;7452;55.594;12.986;2022-11-18T10:46:15;0.93;;;0.80;;
14722;SDS011;7452;55.594;12.986;2022-11-18T10:48:44;2.40;;;1.10;;
14722;SDS011;7452;55.594;12.986;2022-11-18T10:51:22;3.27;;;0.80;;
14722;SDS011;7452;55.594;12.986;2022-11-18T10:53:50;1.97;;;0.93;;
14722;SDS011;7452;55.594;12.986;2022-11-18T10:56:16;1.50;;;0.67;;
14722;SDS011;7452;55.594;12.986;2022-11-18T10:58:45;1.87;;;0.87;;
14722;SDS011;7452;55.594;12.986;2022-11-18T11:01:18;1.17;;;0.90;;
14722;SDS011;7452;55.594;12.986;2022-11-18T11:03:51;0.93;;;0.67;;
14722;SDS011;7452;55.594;12.986;2022-11-18T11:09:04;1.43;;;0.90;;
14722;SDS011;7452;55.594;12.986;2022-11-18T11:11:33;1.43;;;0.90;;
14722;SDS011;7452;55.594;12.986;2022-11-18T11:14:10;1.57;;;0.70;;
14722;SDS011;7452;55.594;12.986;2022-11-18T11:16:44;2.47;;;0.90;;
14722;SDS011;7452;55.594;12.986;2022-11-18T11:19:15;1.97;;;0.83;;
14722;SDS011;7452;55.594;12.986;2022-11-18T11:21:48;3.23;;;1.00;;
14722;SDS011;7452;55.594;12.986;2022-11-18T11:24:15;1.93;;;0.90;;
14722;SDS011;7452;55.594;12.986;2022-11-18T11:26:44;1.50;;;0.90;;
14722;SDS011;7452;55.594;12.986;2022-11-18T11:29:18;2.17;;;1.10;;
14722;SDS011;7452;55.594;12.986;2022-11-18T11:31:58;3.13;;;1.00;;
14722;SDS011;7452;55.594;12.986;2022-11-18T11:34:33;1.20;;;0.90;;
14722;SDS011;7452;55.594;12.986;2022-11-18T11:37:11;1.73;;;0.80;;
14722;SDS011;7452;55.594;12.986;2022-11-18T11:39:49;0.70;;;0.70;;
14722;SDS011;7452;55.594;12.986;2022-11-18T11:42:27;1.20;;;0.70;;
14722;SDS011;7452;55.594;12.986;2022-11-18T11:45:17;0.70;;;0.60;;
14722;SDS011;7452;55.594;12.986;2022-11-18T11:47:55;2.10;;;0.60;;
14722;SDS011;7452;55.594;12.986;2022-11-18T11:50:37;0.83;;;0.70;;
14722;SDS011;7452;55.594;12.986;2022-11-18T11:53:31;3.47;;;0.77;;
14722;SDS011;7452;55.594;12.986;2022-11-18T11:56:14;1.07;;;0.60;;
14722;SDS011;7452;55.594;12.986;2022-11-18T11:58:56;1.53;;;0.70;;
14722;SDS011;7452;55.594;12.986;2022-11-18T12:01:35;0.93;;;0.70;;
14722;SDS011;7452;55.594;12.986;2022-11-18T12:04:13;2.00;;;0.90;;
14722;SDS011;7452;55.594;12.986;2022-11-18T12:06:50;2.20;;;0.70;;
14722;SDS011;7452;55.594;12.986;2022-11-18T12:09:20;0.70;;;0.70;;
14722;SDS011;7452;55.594;12.986;2022-11-18T12:12:00;0.83;;;0.60;;
14722;SDS011;7452;55.594;12.986;2022-11-18T12:14:54;2.53;;;0.90;;
14722;SDS011;7452;55.594;12.986;2022-11-18T12:17:26;1.43;;;0.70;;
14722;SDS011;7452;55.594;12.986;2022-11-18T12:19:56;0.80;;;0.60;;
14722;SDS011;7452;55.594;12.986;2022-11-18T12:22:22;1.20;;;0.83;;
14722;SDS011;7452;55.594;12.986;2022-11-18T12:28:11;1.20;;;0.90;;
14722;SDS011;7452;55.594;12.986;2022-11-18T12:30:49;1.17;;;0.83;;
14722;SDS011;7452;55.594;12.986;2022-11-18T12:33:41;3.63;;;1.00;;
14722;SDS011;7452;55.594;12.986;2022-11-18T12:36:09;2.07;;;0.73;;
14722;SDS011;7452;55.594;12.986;2022-11-18T12:38:49;1.30;;;0.80;;
14722;SDS011;7452;55.594;12.986;2022-11-18T12:44:36;1.60;;;0.70;;
14722;SDS011;7452;55.594;12.986;2022-11-18T12:47:04;3.20;;;1.00;;
14722;SDS011;7452;55.594;12.986;2022-11-18T12:52:46;2.30;;;1.00;;
14722;SDS011;7452;55.594;12.986;2022-11-18T12:55:15;1.23;;;1.10;;
14722;SDS011;7452;55.594;12.986;2022-11-18T12:57:46;2.53;;;1.30;;
14722;SDS011;7452;55.594;12.986;2022-11-18T13:00:16;1.93;;;1.20;;
14722;SDS011;7452;55.594;12.986;2022-11-18T13:02:53;2.53;;;1.03;;
14722;SDS011;7452;55.594;12.986;2022-11-18T13:05:22;1.30;;;1.00;;
14722;SDS011;7452;55.594;12.986;2022-11-18T13:07:51;1.87;;;1.03;;
14722;SDS011;7452;55.594;12.986;2022-11-18T13:10:44;1.23;;;1.00;;
14722;SDS011;7452;55.594;12.986;2022-11-18T13:13:19;4.30;;;1.20;;
14722;SDS011;7452;55.594;12.986;2022-11-18T13:15:52;2.43;;;0.90;;
14722;SDS011;7452;55.594;12.986;2022-11-18T13:18:47;3.23;;;0.83;;
14722;SDS011;7452;55.594;12.986;2022-11-18T13:21:19;3.93;;;0.67;;
14722;SDS011;7452;55.594;12.986;2022-11-18T13:24:05;0.90;;;0.80;;
14722;SDS011;7452;55.594;12.986;2022-11-18T13:26:33;2.20;;;1.23;;
14722;SDS011;7452;55.594;12.986;2022-11-18T13:32:10;1.50;;;1.10;;
14722;SDS011;7452;55.594;12.986;2022-11-18T13:34:46;1.97;;;0.93;;
14722;SDS011;7452;55.594;12.986;2022-11-18T13:37:16;1.83;;;0.73;;
14722;SDS011;7452;55.594;12.986;2022-11-18T13:39:45;1.87;;;0.70;;
14722;SDS011;7452;55.594;12.986;2022-11-18T13:42:15;3.50;;;0.73;;
14722;SDS011;7452;55.594;12.986;2022-11-18T13:44:45;3.63;;;0.60;;
14722;SDS011;7452;55.594;12.986;2022-11-18T13:47:20;2.83;;;0.80;;
14722;SDS011;7452;55.594;12.986;2022-11-18T13:49:54;1.00;;;0.70;;
14722;SDS011;7452;55.594;12.986;2022-11-18T13:52:28;1.33;;;0.70;;
14722;SDS011;7452;55.594;12.986;2022-11-18T13:54:58;1.83;;;0.80;;
14722;SDS011;7452;55.594;12.986;2022-11-18T13:57:30;2.33;;;0.70;;
14722;SDS011;7452;55.594;12.986;2022-11-18T13:59:58;1.20;;;0.80;;
14722;SDS011;7452;55.594;12.986;2022-11-18T14:02:30;1.27;;;0.80;;
14722;SDS011;7452;55.594;12.986;2022-11-18T14:05:03;2.53;;;0.83;;
14722;SDS011;7452;55.594;12.986;2022-11-18T14:07:31;2.30;;;0.97;;
14722;SDS011;7452;55.594;12.986;2022-11-18T14:09:59;2.20;;;0.90;;
14722;SDS011;7452;55.594;12.986;2022-11-18T14:12:28;0.73;;;0.70;;
14722;SDS011;7452;55.594;12.986;2022-11-18T14:15:19;1.43;;;0.97;;
14722;SDS011;7452;55.594;12.986;2022-11-18T14:17:52;0.90;;;0.80;;
14722;SDS011;7452;55.594;12.986;2022-11-18T14:20:21;1.07;;;0.87;;
14722;SDS011;7452;55.594;12.986;2022-11-18T14:22:50;2.23;;;0.80;;
14722;SDS011;7452;55.594;12.986;2022-11-18T14:25:21;1.97;;;0.80;;
14722;SDS011;7452;55.594;12.986;2022-11-18T14:27:51;1.00;;;0.80;;
14722;SDS011;7452;55.594;12.986;2022-11-18T14:30:27;1.80;;;1.00;;
14722;SDS011;7452;55.594;12.986;2022-11-18T14:35:47;1.70;;;0.80;;
14722;SDS011;7452;55.594;12.986;2022-11-18T14:38:18;4.43;;;1.17;;
14722;SDS011;7452;55.594;12.986;2022-11-18T14:40:46;1.87;;;1.20;;
14722;SDS011;7452;55.594;12.986;2022-11-18T14:43:19;1.43;;;1.03;;
14722;SDS011;7452;55.594;12.986;2022-11-18T14:45:47;1.30;;;1.00;;
14722;SDS011;7452;55.594;12.986;2022-11-18T14:48:14;1.03;;;0.93;;
14722;SDS011;7452;55.594;12.986;2022-11-18T14:50:46;2.63;;;1.17;;
14722;SDS011;7452;55.594;12.986;2022-11-18T14:53:13;1.57;;;1.27;;
14722;SDS011;7452;55.594;12.986;2022-11-18T14:55:40;2.90;;;1.40;;
14722;SDS011;7452;55.594;12.986;2022-11-18T14:58:10;1.73;;;1.50;;
14722;SDS011;7452;55.594;12.986;2022-11-18T15:00:39;4.03;;;2.13;;
14722;SDS011;7452;55.594;12.986;2022-11-18T15:03:06;2.40;;;1.27;;
14722;SDS011;7452;55.594;12.986;2022-11-18T15:05:33;2.27;;;1.30;;
14722;SDS011;7452;55.594;12.986;2022-11-18T15:08:02;1.90;;;1.07;;
14722;SDS011;7452;55.594;12.986;2022-11-18T15:10:29;2.10;;;1.40;;
14722;SDS011;7452;55.594;12.986;2022-11-18T15:12:56;1.90;;;1.30;;
14722;SDS011;7452;55.594;12.986;2022-11-18T15:15:23;1.50;;;1.10;;
14722;SDS011;7452;55.594;12.986;2022-11-18T15:17:50;1.83;;;1.20;;
14722;SDS011;7452;55.594;12.986;2022-11-18T15:20:18;2.33;;;1.10;;
14722;SDS011;7452;55.594;12.986;2022-11-18T15:22:46;2.80;;;1.63;;
14722;SDS011;7452;55.594;12.986;2022-11-18T15:25:14;2.03;;;1.27;;
14722;SDS011;7452;55.594;12.986;2022-11-18T15:27:41;2.50;;;1.37;;
14722;SDS011;7452;55.594;12.986;2022-11-18T15:30:09;3.07;;;1.37;;
14722;SDS011;7452;55.594;12.986;2022-11-18T15:32:38;4.23;;;1.63;;